createdAt,value
2018-12-07T00:00:04.441Z,16.20
2018-12-07T00:02:31.568Z,16.20
2018-12-07T00:04:58.665Z,16.20
2018-12-07T00:07:25.775Z,16.20
2018-12-07T00:09:52.869Z,16.20
2018-12-07T00:12:19.984Z,16.20
2018-12-07T00:14:47.092Z,16.20
2018-12-07T00:17:14.168Z,16.20
2018-12-07T00:19:47.712Z,16.20
2018-12-07T00:22:08.365Z,16.20
2018-12-07T00:24:35.495Z,16.20
2018-12-07T00:27:02.637Z,16.20
2018-12-07T00:29:29.736Z,16.20
2018-12-07T00:31:56.821Z,16.20
2018-12-07T00:34:23.901Z,16.20
2018-12-07T00:36:51.021Z,16.20
2018-12-07T00:39:18.136Z,16.20
2018-12-07T00:41:45.254Z,16.20
2018-12-07T00:44:12.352Z,16.20
2018-12-07T00:46:39.462Z,16.20
2018-12-07T00:49:06.578Z,16.20
2018-12-07T00:51:33.675Z,16.20
2018-12-07T00:54:00.786Z,16.20
2018-12-07T00:56:27.855Z,16.20
2018-12-07T00:58:54.946Z,16.10
2018-12-07T01:01:22.025Z,16.10
2018-12-07T01:03:49.130Z,16.20
2018-12-07T01:06:16.228Z,16.30
2018-12-07T01:08:43.312Z,16.10
2018-12-07T01:11:10.391Z,16.20
2018-12-07T01:13:37.509Z,16.10
2018-12-07T01:16:04.631Z,16.10
2018-12-07T01:18:31.732Z,16.10
2018-12-07T01:20:58.821Z,16.10
2018-12-07T01:23:25.907Z,16.10
2018-12-07T01:25:52.988Z,16.10
2018-12-07T01:28:20.064Z,16.10
2018-12-07T01:30:47.174Z,16.10
2018-12-07T01:33:14.264Z,16.10
2018-12-07T01:35:41.402Z,16.10
2018-12-07T01:38:08.493Z,16.10
2018-12-07T01:40:35.627Z,16.10
2018-12-07T01:43:02.757Z,16.10
2018-12-07T01:45:29.868Z,16.10
2018-12-07T01:47:56.976Z,16.10
2018-12-07T01:50:24.108Z,16.10
2018-12-07T01:52:51.211Z,16.10
2018-12-07T01:55:18.330Z,16.10
2018-12-07T01:57:45.430Z,16.10
2018-12-07T02:00:12.546Z,16.10
2018-12-07T02:02:39.663Z,16.10
2018-12-07T02:05:06.784Z,16.10
2018-12-07T02:07:34.110Z,16.10
2018-12-07T02:10:01.190Z,16.10
2018-12-07T02:12:28.293Z,16.10
2018-12-07T02:14:55.390Z,16.10
2018-12-07T02:17:22.490Z,16.10
2018-12-07T02:19:49.613Z,16.10
2018-12-07T02:22:16.687Z,16.10
2018-12-07T02:24:43.771Z,16.10
2018-12-07T02:27:10.870Z,16.10
2018-12-07T02:29:37.977Z,16.10
2018-12-07T02:32:05.081Z,16.10
2018-12-07T02:34:32.210Z,16.10
2018-12-07T02:36:59.276Z,16.00
2018-12-07T02:39:26.407Z,16.10
2018-12-07T02:41:53.508Z,16.10
2018-12-07T02:44:20.612Z,16.00
2018-12-07T02:46:47.704Z,16.10
2018-12-07T02:49:14.789Z,16.00
2018-12-07T02:58:37.485Z,16.10
2018-12-07T03:01:04.597Z,16.00
2018-12-07T03:03:31.712Z,16.10
2018-12-07T03:05:58.820Z,16.00
2018-12-07T03:08:26.176Z,16.00
2018-12-07T03:10:53.329Z,16.00
2018-12-07T03:13:20.421Z,16.10
2018-12-07T03:15:47.587Z,16.10
2018-12-07T03:18:25.035Z,16.10
2018-12-07T03:20:52.195Z,16.00
2018-12-07T03:23:19.328Z,16.00
2018-12-07T03:25:46.486Z,16.00
2018-12-07T03:28:13.591Z,16.00
2018-12-07T03:30:40.742Z,16.00
2018-12-07T03:33:07.841Z,16.00
2018-12-07T03:35:34.988Z,16.00
2018-12-07T03:38:02.074Z,16.00
2018-12-07T03:40:29.191Z,16.00
2018-12-07T03:42:56.329Z,15.90
2018-12-07T03:45:23.429Z,16.00
2018-12-07T03:47:50.561Z,16.00
2018-12-07T03:50:17.676Z,16.00
2018-12-07T03:52:44.767Z,16.00
2018-12-07T03:55:11.888Z,16.00
2018-12-07T03:57:39.368Z,16.00
2018-12-07T04:00:06.484Z,16.00
2018-12-07T04:02:33.609Z,16.00
2018-12-07T04:05:00.724Z,16.00
2018-12-07T04:07:27.838Z,16.00
2018-12-07T04:09:54.932Z,16.00
2018-12-07T04:12:22.057Z,16.00
2018-12-07T04:14:49.169Z,16.00
2018-12-07T04:17:16.276Z,16.00
2018-12-07T04:19:43.398Z,16.00
2018-12-07T04:22:10.486Z,16.00
2018-12-07T04:24:37.567Z,16.00
2018-12-07T04:27:04.685Z,16.00
2018-12-07T04:29:31.794Z,16.00
2018-12-07T04:31:58.917Z,16.00
2018-12-07T04:34:26.046Z,16.00
2018-12-07T04:36:53.169Z,16.00
2018-12-07T04:39:20.321Z,15.90
2018-12-07T04:41:47.428Z,16.00
2018-12-07T04:44:14.580Z,15.90
2018-12-07T04:46:41.679Z,15.90
2018-12-07T04:49:08.796Z,16.00
2018-12-07T04:51:35.952Z,15.90
2018-12-07T04:54:03.061Z,15.90
2018-12-07T04:56:30.213Z,16.00
2018-12-07T04:58:57.315Z,15.90
2018-12-07T05:01:24.438Z,15.90
2018-12-07T05:03:51.525Z,15.90
2018-12-07T05:06:18.640Z,16.00
2018-12-07T05:08:45.760Z,15.90
2018-12-07T05:11:12.889Z,15.90
2018-12-07T05:13:40.030Z,15.90
2018-12-07T05:16:07.308Z,15.90
2018-12-07T05:18:34.418Z,15.90
2018-12-07T05:21:01.519Z,15.90
2018-12-07T05:23:28.647Z,15.90
2018-12-07T05:25:55.737Z,15.90
2018-12-07T05:28:22.837Z,15.90
2018-12-07T05:30:49.945Z,15.90
2018-12-07T05:33:17.072Z,15.90
2018-12-07T05:35:44.160Z,15.90
2018-12-07T05:38:11.280Z,15.90
2018-12-07T05:40:38.384Z,15.90
2018-12-07T05:43:05.514Z,15.90
2018-12-07T05:45:32.621Z,15.90
2018-12-07T05:47:59.716Z,15.90
2018-12-07T05:50:26.841Z,15.90
2018-12-07T05:52:54.012Z,15.90
2018-12-07T05:55:21.062Z,15.90
2018-12-07T05:57:48.196Z,15.90
2018-12-07T06:00:15.304Z,15.90
2018-12-07T06:02:42.430Z,15.90
2018-12-07T06:05:09.512Z,15.80
2018-12-07T06:07:36.617Z,15.90
2018-12-07T06:10:04.229Z,15.90
2018-12-07T06:12:31.474Z,15.90
2018-12-07T06:14:58.573Z,15.90
2018-12-07T06:17:25.686Z,15.90
2018-12-07T06:19:52.816Z,15.90
2018-12-07T06:22:19.929Z,15.90
2018-12-07T06:24:47.040Z,15.90
2018-12-07T06:27:14.140Z,15.90
2018-12-07T06:29:41.300Z,15.90
2018-12-07T06:32:08.449Z,15.90
2018-12-07T06:34:35.565Z,15.90
2018-12-07T06:37:02.680Z,15.90
2018-12-07T06:39:29.781Z,15.90
2018-12-07T06:41:56.998Z,15.90
2018-12-07T06:44:24.060Z,15.90
2018-12-07T06:46:51.185Z,15.90
2018-12-07T06:49:18.288Z,15.90
2018-12-07T06:51:45.422Z,16.00
2018-12-07T06:54:12.538Z,15.90
2018-12-07T06:56:39.670Z,15.90
2018-12-07T06:59:06.790Z,15.90
2018-12-07T07:01:33.904Z,15.90
2018-12-07T07:04:01.036Z,15.80
2018-12-07T07:06:28.158Z,15.90
2018-12-07T07:08:55.292Z,15.90
2018-12-07T07:11:22.389Z,15.90
2018-12-07T07:13:49.525Z,15.90
2018-12-07T07:16:22.880Z,15.90
2018-12-07T07:18:43.794Z,15.90
2018-12-07T07:21:10.908Z,15.90
2018-12-07T07:23:38.066Z,15.90
2018-12-07T07:26:05.174Z,15.80
2018-12-07T07:28:32.334Z,15.80
2018-12-07T07:30:59.437Z,15.80
2018-12-07T07:33:26.545Z,15.80
2018-12-07T07:35:53.648Z,15.80
2018-12-07T07:38:20.781Z,15.90
2018-12-07T07:40:47.885Z,15.80
2018-12-07T07:43:14.998Z,15.80
2018-12-07T07:45:42.129Z,15.80
2018-12-07T07:48:09.233Z,15.90
2018-12-07T07:50:36.353Z,15.90
2018-12-07T07:53:03.477Z,15.80
2018-12-07T07:55:30.590Z,15.80
2018-12-07T07:57:57.691Z,15.80
2018-12-07T08:00:24.788Z,15.80
2018-12-07T08:02:51.902Z,15.80
2018-12-07T08:05:18.998Z,15.80
2018-12-07T08:07:46.104Z,15.80
2018-12-07T08:10:13.235Z,15.80
2018-12-07T08:12:40.343Z,15.90
2018-12-07T08:15:07.447Z,15.80
2018-12-07T08:17:34.541Z,15.90
2018-12-07T08:20:01.640Z,15.80
2018-12-07T08:22:28.737Z,15.80
2018-12-07T08:24:55.845Z,15.80
2018-12-07T08:27:23.462Z,15.80
2018-12-07T08:29:50.598Z,15.80
2018-12-07T08:32:17.732Z,15.80
2018-12-07T08:34:44.859Z,15.80
2018-12-07T08:37:11.964Z,15.80
2018-12-07T08:39:39.075Z,15.80
2018-12-07T08:42:06.960Z,15.70
2018-12-07T08:44:33.353Z,15.80
2018-12-07T08:47:00.469Z,15.80
2018-12-07T08:49:33.486Z,15.80
2018-12-07T08:52:00.589Z,15.80
2018-12-07T08:54:27.696Z,15.80
2018-12-07T08:56:54.837Z,15.80
2018-12-07T08:59:21.960Z,15.80
2018-12-07T09:01:49.064Z,15.80
2018-12-07T09:04:16.185Z,15.80
2018-12-07T09:06:43.316Z,15.80
2018-12-07T09:09:10.456Z,15.80
2018-12-07T09:11:37.579Z,15.80
2018-12-07T09:14:04.695Z,15.80
2018-12-07T09:16:31.852Z,15.70
2018-12-07T09:18:58.955Z,15.80
2018-12-07T09:21:26.030Z,15.80
2018-12-07T09:23:53.141Z,15.80
2018-12-07T09:26:20.246Z,15.80
2018-12-07T09:28:47.379Z,15.80
2018-12-07T09:31:14.501Z,15.80
2018-12-07T09:33:41.633Z,15.80
2018-12-07T09:36:08.735Z,15.80
2018-12-07T09:38:35.850Z,15.80
2018-12-07T09:41:02.936Z,15.80
2018-12-07T09:43:30.035Z,15.80
2018-12-07T09:45:57.173Z,15.80
2018-12-07T09:48:24.269Z,15.80
2018-12-07T09:50:51.378Z,15.80
2018-12-07T09:53:18.533Z,15.80
2018-12-07T09:55:45.644Z,15.80
2018-12-07T09:58:12.728Z,15.80
2018-12-07T10:00:39.869Z,15.80
2018-12-07T10:03:06.976Z,15.80
2018-12-07T10:05:34.081Z,15.80
2018-12-07T10:08:01.173Z,15.80
2018-12-07T10:10:28.294Z,15.80
2018-12-07T10:12:55.414Z,15.80
2018-12-07T10:15:22.528Z,15.80
2018-12-07T10:17:49.616Z,15.80
2018-12-07T10:20:16.726Z,15.80
2018-12-07T10:22:43.853Z,15.80
2018-12-07T10:25:10.987Z,15.80
2018-12-07T10:27:38.112Z,15.80
2018-12-07T10:30:05.267Z,15.80
2018-12-07T10:32:32.371Z,15.80
2018-12-07T10:34:59.468Z,15.80
2018-12-07T10:37:26.561Z,15.80
2018-12-07T10:39:53.656Z,15.80
2018-12-07T10:42:20.737Z,15.80
2018-12-07T10:44:47.902Z,15.80
2018-12-07T10:47:15.020Z,15.80
2018-12-07T10:49:42.127Z,15.80
2018-12-07T10:52:09.232Z,15.80
2018-12-07T10:54:36.365Z,15.80
2018-12-07T10:57:03.507Z,15.80
2018-12-07T10:59:30.617Z,15.80
2018-12-07T11:02:03.397Z,15.80
2018-12-07T11:04:36.273Z,15.80
2018-12-07T11:07:09.259Z,15.80
2018-12-07T11:09:42.552Z,15.80
2018-12-07T11:12:15.308Z,15.80
2018-12-07T11:14:48.211Z,15.80
2018-12-07T11:17:21.132Z,15.80
2018-12-07T11:19:54.052Z,15.80
2018-12-07T11:22:26.933Z,15.80
2018-12-07T11:24:59.837Z,15.80
2018-12-07T11:27:32.758Z,15.80
2018-12-07T11:30:05.792Z,15.80
2018-12-07T11:32:37.493Z,15.80
2018-12-07T11:35:07.590Z,15.80
2018-12-07T11:37:34.723Z,15.70
2018-12-07T11:40:02.057Z,15.80
2018-12-07T11:42:29.166Z,15.80
2018-12-07T11:44:56.280Z,15.80
2018-12-07T11:47:23.408Z,15.80
2018-12-07T11:49:50.562Z,15.80
2018-12-07T11:52:17.692Z,15.70
2018-12-07T11:54:44.799Z,15.70
2018-12-07T11:57:11.896Z,15.80
2018-12-07T11:59:39.019Z,15.80
2018-12-07T12:02:06.194Z,15.80
2018-12-07T12:04:33.313Z,15.80
2018-12-07T12:07:00.440Z,15.80
2018-12-07T12:09:27.548Z,15.80
2018-12-07T12:11:54.672Z,15.80
2018-12-07T12:14:21.805Z,15.80
2018-12-07T12:16:48.917Z,15.80
2018-12-07T12:19:16.036Z,15.70
2018-12-07T12:21:43.173Z,15.80
2018-12-07T12:24:10.288Z,15.80
2018-12-07T12:26:37.393Z,15.70
2018-12-07T12:29:04.506Z,15.70
2018-12-07T12:31:31.640Z,15.80
2018-12-07T12:33:58.740Z,15.80
2018-12-07T12:36:25.866Z,15.80
2018-12-07T12:38:52.968Z,15.80
2018-12-07T12:41:20.076Z,15.80
2018-12-07T12:43:47.188Z,15.70
2018-12-07T12:46:14.309Z,15.80
2018-12-07T12:48:41.412Z,15.80
2018-12-07T12:51:08.548Z,15.70
2018-12-07T12:53:35.656Z,15.70
2018-12-07T12:56:02.800Z,15.80
2018-12-07T12:58:29.897Z,15.70
2018-12-07T13:00:57.021Z,15.80
2018-12-07T13:03:24.129Z,15.80
2018-12-07T13:05:51.244Z,15.70
2018-12-07T13:08:18.351Z,15.70
2018-12-07T13:10:45.498Z,15.70
2018-12-07T13:13:12.613Z,15.70
2018-12-07T13:15:39.720Z,15.70
2018-12-07T13:18:06.813Z,15.70
2018-12-07T13:20:33.959Z,15.70
2018-12-07T13:23:01.085Z,15.70
2018-12-07T13:25:28.197Z,15.70
2018-12-07T13:27:55.304Z,15.70
2018-12-07T13:30:22.406Z,15.70
2018-12-07T13:32:49.548Z,15.70
2018-12-07T13:35:16.648Z,15.80
2018-12-07T13:37:43.768Z,15.70
2018-12-07T13:40:11.030Z,15.70
2018-12-07T13:42:38.199Z,15.70
2018-12-07T13:45:07.031Z,15.80
2018-12-07T13:47:34.272Z,15.70
2018-12-07T13:50:06.881Z,15.70
2018-12-07T13:52:33.986Z,15.70
2018-12-07T13:55:01.271Z,15.80
2018-12-07T13:57:28.244Z,15.70
2018-12-07T13:59:55.450Z,15.70
2018-12-07T14:02:22.532Z,15.70
2018-12-07T14:04:49.693Z,15.80
2018-12-07T14:07:16.937Z,15.70
2018-12-07T14:09:44.021Z,15.70
2018-12-07T14:12:11.243Z,15.70
2018-12-07T14:14:38.399Z,15.70
2018-12-07T14:17:05.501Z,15.70
2018-12-07T14:19:32.520Z,15.70
2018-12-07T14:21:59.727Z,15.70
2018-12-07T14:24:26.859Z,15.70
2018-12-07T14:26:59.481Z,15.70
2018-12-07T14:29:21.475Z,15.70
2018-12-07T14:31:48.433Z,15.70
2018-12-07T14:34:15.549Z,15.70
2018-12-07T14:36:42.896Z,15.70
2018-12-07T14:39:09.832Z,15.70
2018-12-07T14:41:36.988Z,15.70
2018-12-07T14:44:04.234Z,15.70
2018-12-07T14:46:31.218Z,15.70
2018-12-07T14:48:58.418Z,15.70
2018-12-07T14:51:25.547Z,15.70
2018-12-07T14:53:52.799Z,15.70
2018-12-07T14:56:20.955Z,15.70
2018-12-07T14:58:46.947Z,15.70
2018-12-07T15:01:14.045Z,15.70
2018-12-07T15:03:41.309Z,15.70
2018-12-07T15:06:08.562Z,15.70
2018-12-07T15:08:35.470Z,15.70
2018-12-07T15:11:02.529Z,15.70
2018-12-07T15:13:29.649Z,15.70
2018-12-07T15:15:56.764Z,15.70
2018-12-07T15:18:24.065Z,15.70
2018-12-07T15:20:51.057Z,15.70
2018-12-07T15:23:18.249Z,15.70
2018-12-07T15:25:45.358Z,15.70
2018-12-07T15:28:12.658Z,15.70
2018-12-07T15:30:39.785Z,15.70
2018-12-07T15:33:06.851Z,15.70
2018-12-07T15:35:34.132Z,15.60
2018-12-07T15:38:01.176Z,15.70
2018-12-07T15:40:28.414Z,15.70
2018-12-07T15:42:55.372Z,15.70
2018-12-07T15:45:22.659Z,15.70
2018-12-07T15:47:49.809Z,15.70
2018-12-07T15:50:24.696Z,15.70
2018-12-07T15:52:43.989Z,15.70
2018-12-07T15:55:11.006Z,15.50
2018-12-07T15:57:38.321Z,15.70
2018-12-07T16:00:06.604Z,15.70
2018-12-07T16:02:33.758Z,15.70
2018-12-07T16:05:00.638Z,15.70
2018-12-07T16:07:27.770Z,15.70
2018-12-07T16:09:54.913Z,15.70
2018-12-07T16:12:21.970Z,15.70
2018-12-07T16:14:49.062Z,15.70
2018-12-07T16:17:16.209Z,15.70
2018-12-07T16:19:43.398Z,15.70
2018-12-07T16:22:10.537Z,15.70
2018-12-07T16:24:37.597Z,15.70
2018-12-07T16:27:04.751Z,15.70
2018-12-07T16:29:32.090Z,15.70
2018-12-07T16:31:59.057Z,15.70
2018-12-07T16:34:26.386Z,15.70
2018-12-07T16:36:53.314Z,15.70
2018-12-07T16:39:20.624Z,15.70
2018-12-07T16:41:47.737Z,15.70
2018-12-07T16:44:14.749Z,15.70
2018-12-07T16:46:42.032Z,15.70
2018-12-07T16:49:09.014Z,15.70
2018-12-07T16:51:36.253Z,15.50
2018-12-07T16:54:03.232Z,15.70
2018-12-07T16:56:30.331Z,15.70
2018-12-07T16:58:57.489Z,15.70
2018-12-07T17:01:24.694Z,15.70
2018-12-07T17:03:51.808Z,15.60
2018-12-07T17:06:18.901Z,15.70
2018-12-07T17:08:46.196Z,15.60
2018-12-07T17:11:13.165Z,15.70
2018-12-07T17:13:40.348Z,15.70
2018-12-07T17:16:07.494Z,15.70
2018-12-07T17:18:34.803Z,15.60
2018-12-07T17:21:01.741Z,15.70
2018-12-07T17:23:29.024Z,15.70
2018-12-07T17:25:56.284Z,15.70
2018-12-07T17:28:23.218Z,15.70
2018-12-07T17:30:50.273Z,15.60
2018-12-07T17:33:17.428Z,15.60
2018-12-07T17:35:44.631Z,15.60
2018-12-07T17:38:11.699Z,15.60
2018-12-07T17:40:39.006Z,15.60
2018-12-07T17:43:05.964Z,15.60
2018-12-07T17:45:33.129Z,15.70
2018-12-07T17:48:00.236Z,15.70
2018-12-07T17:50:27.529Z,15.70
2018-12-07T17:52:54.586Z,15.70
2018-12-07T17:55:21.928Z,15.60
2018-12-07T17:57:48.796Z,15.60
2018-12-07T18:00:15.921Z,15.70
2018-12-07T18:02:43.020Z,15.60
2018-12-07T18:05:10.210Z,15.60
2018-12-07T18:07:37.471Z,15.70
2018-12-07T18:10:06.005Z,15.60
2018-12-07T18:12:33.113Z,15.60
2018-12-07T18:15:00.450Z,15.60
2018-12-07T18:17:27.360Z,15.60
2018-12-07T18:19:54.402Z,15.60
2018-12-07T18:22:21.582Z,15.60
2018-12-07T18:24:48.655Z,15.60
2018-12-07T18:27:15.873Z,15.60
2018-12-07T18:29:43.017Z,15.60
2018-12-07T18:32:10.297Z,15.80
2018-12-07T18:34:37.225Z,15.60
2018-12-07T18:37:04.682Z,15.50
2018-12-07T18:39:31.711Z,15.70
2018-12-07T18:41:58.694Z,15.60
2018-12-07T18:44:25.866Z,15.60
2018-12-07T18:46:52.872Z,15.60
2018-12-07T18:49:20.076Z,15.60
2018-12-07T18:51:47.339Z,15.60
2018-12-07T18:54:14.344Z,15.70
2018-12-07T18:56:41.401Z,15.60
2018-12-07T18:59:08.729Z,15.60
2018-12-07T19:01:35.665Z,15.60
2018-12-07T19:04:02.897Z,15.60
2018-12-07T19:06:29.894Z,15.60
2018-12-07T19:08:57.090Z,15.60
2018-12-07T19:11:24.188Z,15.60
2018-12-07T19:13:51.505Z,15.60
2018-12-07T19:16:18.396Z,15.60
2018-12-07T19:18:45.580Z,15.60
2018-12-07T19:21:12.784Z,15.60
2018-12-07T19:23:39.827Z,15.60
2018-12-07T19:26:07.088Z,15.60
2018-12-07T19:28:34.096Z,15.60
2018-12-07T19:31:01.262Z,15.60
2018-12-07T19:33:28.491Z,15.60
2018-12-07T19:35:55.420Z,15.60
2018-12-07T19:38:22.682Z,15.60
2018-12-07T19:40:49.719Z,15.60
2018-12-07T19:43:16.794Z,15.60
2018-12-07T19:45:43.903Z,15.60
2018-12-07T19:48:11.079Z,15.60
2018-12-07T19:50:38.333Z,15.60
2018-12-07T19:53:05.313Z,15.70
2018-12-07T19:55:32.433Z,15.60
2018-12-07T19:57:59.575Z,15.60
2018-12-07T20:00:26.699Z,15.60
2018-12-07T20:02:53.861Z,15.60
2018-12-07T20:05:21.005Z,15.60
2018-12-07T20:07:48.136Z,15.60
2018-12-07T20:10:15.239Z,15.60
2018-12-07T20:12:49.058Z,15.60
2018-12-07T20:15:16.427Z,15.60
2018-12-07T20:17:43.293Z,15.60
2018-12-07T20:20:10.709Z,15.60
2018-12-07T20:22:37.586Z,15.60
2018-12-07T20:25:04.711Z,15.60
2018-12-07T20:27:31.883Z,15.60
2018-12-07T20:29:58.987Z,15.60
2018-12-07T20:32:26.076Z,15.60
2018-12-07T20:34:53.574Z,15.60
2018-12-07T20:37:20.689Z,15.60
2018-12-07T20:39:47.960Z,15.50
2018-12-07T20:42:14.762Z,15.60
2018-12-07T20:44:41.834Z,15.60
2018-12-07T20:47:08.999Z,15.60
2018-12-07T20:49:36.065Z,15.60
2018-12-07T20:52:03.239Z,15.60
2018-12-07T20:54:30.397Z,15.60
2018-12-07T20:56:57.784Z,15.60
2018-12-07T20:59:24.759Z,15.60
2018-12-07T21:01:52.019Z,15.60
2018-12-07T21:04:27.004Z,15.60
2018-12-07T21:08:08.878Z,15.60
2018-12-07T21:11:43.954Z,15.60
2018-12-07T21:14:24.142Z,15.60
2018-12-07T21:17:02.130Z,15.60
2018-12-07T21:19:29.263Z,15.60
2018-12-07T21:21:56.581Z,15.60
2018-12-07T21:24:23.500Z,15.60
2018-12-07T21:26:50.703Z,15.60
2018-12-07T21:29:17.781Z,15.60
2018-12-07T21:31:44.983Z,15.60
2018-12-07T21:34:18.499Z,15.60
2018-12-07T21:36:46.318Z,15.60
2018-12-07T21:41:21.786Z,15.60
2018-12-07T21:43:49.006Z,15.60
2018-12-07T21:46:16.097Z,15.60
2018-12-07T21:48:43.231Z,15.60
2018-12-07T21:53:18.243Z,15.60
2018-12-07T21:55:45.222Z,15.60
2018-12-07T21:58:12.216Z,15.60
2018-12-07T22:00:39.384Z,15.60
2018-12-07T22:03:06.570Z,15.60
2018-12-07T22:05:33.604Z,15.60
2018-12-07T22:08:00.832Z,15.60
2018-12-07T22:10:27.914Z,15.60
2018-12-07T22:12:55.343Z,15.60
2018-12-07T22:15:22.456Z,15.60
2018-12-07T22:17:49.381Z,15.60
2018-12-07T22:20:16.494Z,15.60
2018-12-07T22:22:43.841Z,15.60
2018-12-07T22:25:10.768Z,15.50
2018-12-07T22:27:37.847Z,15.60
2018-12-07T22:30:05.369Z,15.60
2018-12-07T22:32:32.155Z,15.60
2018-12-07T22:34:59.545Z,15.60
2018-12-07T22:37:26.391Z,15.60
2018-12-07T22:39:53.572Z,15.70
2018-12-07T22:42:20.794Z,15.60
2018-12-07T22:44:47.739Z,15.60
2018-12-07T22:47:15.080Z,15.60
2018-12-07T22:49:41.956Z,15.60
2018-12-07T22:52:09.098Z,15.60
2018-12-07T22:54:36.200Z,15.60
2018-12-07T22:57:03.312Z,15.60
2018-12-07T22:59:30.405Z,15.60
2018-12-07T23:01:57.502Z,15.60
2018-12-07T23:04:25.913Z,15.60
2018-12-07T23:06:51.767Z,15.60
2018-12-07T23:09:18.864Z,15.60
2018-12-07T23:11:46.001Z,15.60
2018-12-07T23:14:13.124Z,15.60
2018-12-07T23:16:40.248Z,15.60
2018-12-07T23:19:07.343Z,15.60
2018-12-07T23:21:34.455Z,15.60
2018-12-07T23:24:01.555Z,15.60
2018-12-07T23:26:28.660Z,15.60
2018-12-07T23:28:55.774Z,15.60
2018-12-07T23:31:22.876Z,15.60
2018-12-07T23:33:49.978Z,15.50
2018-12-07T23:36:17.069Z,15.60
2018-12-07T23:38:44.180Z,15.60
2018-12-07T23:41:11.248Z,15.60
2018-12-07T23:43:38.372Z,15.60
2018-12-07T23:46:05.457Z,15.60
2018-12-07T23:48:32.556Z,15.60
2018-12-07T23:50:59.637Z,15.60
2018-12-07T23:53:26.725Z,15.60
2018-12-07T23:55:53.792Z,15.60
2018-12-07T23:58:20.888Z,15.60
